createdAt,value
2019-03-30T00:01:06.062Z,87.02
2019-03-30T00:03:35.786Z,87.69
2019-03-30T00:08:36.761Z,87.29
2019-03-30T00:11:06.481Z,86.54
2019-03-30T00:13:36.164Z,86.11
2019-03-30T00:16:05.853Z,85.97
2019-03-30T00:18:35.686Z,86.66
2019-03-30T00:21:05.598Z,87.42
2019-03-30T00:23:35.334Z,87.54
2019-03-30T00:26:05.190Z,87.75
2019-03-30T00:28:34.878Z,87.84
2019-03-30T00:31:04.742Z,88.10
2019-03-30T00:33:34.431Z,88.64
2019-03-30T00:36:04.410Z,88.60
2019-03-30T00:38:34.099Z,88.21
2019-03-30T00:41:03.829Z,87.82
2019-03-30T00:43:33.696Z,87.40
2019-03-30T00:46:03.390Z,87.51
2019-03-30T00:48:33.142Z,87.69
2019-03-30T00:51:03.030Z,87.76
2019-03-30T00:53:32.793Z,87.45
2019-03-30T00:56:02.522Z,87.58
2019-03-30T00:58:32.322Z,87.71
2019-03-30T01:01:02.176Z,87.49
2019-03-30T01:03:31.929Z,87.71
2019-03-30T01:06:01.690Z,88.50
2019-03-30T01:08:31.435Z,88.95
2019-03-30T01:11:01.311Z,88.97
2019-03-30T01:13:30.986Z,88.18
2019-03-30T01:16:00.779Z,88.40
2019-03-30T01:18:30.505Z,88.82
2019-03-30T01:21:00.377Z,89.60
2019-03-30T01:23:30.168Z,89.34
2019-03-30T01:25:59.872Z,89.96
2019-03-30T01:28:29.582Z,90.39
2019-03-30T01:30:59.577Z,90.84
2019-03-30T01:33:29.686Z,90.46
2019-03-30T01:35:59.436Z,89.78
2019-03-30T01:38:29.260Z,90.07
2019-03-30T01:40:59.039Z,90.37
2019-03-30T01:43:28.734Z,90.41
2019-03-30T01:45:58.596Z,90.33
2019-03-30T01:48:28.395Z,90.07
2019-03-30T01:50:58.071Z,89.73
2019-03-30T01:53:27.778Z,90.29
2019-03-30T01:55:57.494Z,90.41
2019-03-30T01:58:27.239Z,90.53
2019-03-30T02:00:56.941Z,90.64
2019-03-30T02:03:26.643Z,90.95
2019-03-30T02:05:56.370Z,91.02
2019-03-30T02:08:26.029Z,91.37
2019-03-30T02:10:55.738Z,92.46
2019-03-30T02:13:25.416Z,93.29
2019-03-30T02:15:55.372Z,92.99
2019-03-30T02:18:25.091Z,93.73
2019-03-30T02:20:54.803Z,94.20
2019-03-30T02:23:24.467Z,93.99
2019-03-30T02:25:54.161Z,94.01
2019-03-30T02:28:24.015Z,94.05
2019-03-30T02:30:53.676Z,93.83
2019-03-30T02:33:23.406Z,94.01
2019-03-30T02:35:53.192Z,93.89
2019-03-30T02:38:22.940Z,93.60
2019-03-30T02:40:52.600Z,93.00
2019-03-30T02:43:22.541Z,92.89
2019-03-30T02:45:52.187Z,92.87
2019-03-30T02:48:21.983Z,92.10
2019-03-30T02:50:51.703Z,91.36
2019-03-30T02:53:21.363Z,92.47
2019-03-30T02:55:51.049Z,92.47
2019-03-30T02:58:20.753Z,92.48
2019-03-30T03:00:50.462Z,92.04
2019-03-30T03:03:20.429Z,91.94
2019-03-30T03:05:50.111Z,91.19
2019-03-30T03:08:19.931Z,91.20
2019-03-30T03:10:49.808Z,91.47
2019-03-30T03:13:19.476Z,91.27
2019-03-30T03:15:49.159Z,91.67
2019-03-30T03:18:19.020Z,92.59
2019-03-30T03:21:06.134Z,93.19
2019-03-30T03:23:20.398Z,93.27
2019-03-30T03:25:50.099Z,93.55
2019-03-30T03:28:19.961Z,92.91
2019-03-30T03:30:49.699Z,92.91
2019-03-30T03:33:19.413Z,92.24
2019-03-30T03:35:49.138Z,91.97
2019-03-30T03:38:18.767Z,93.28
2019-03-30T03:40:48.466Z,94.52
2019-03-30T03:43:18.139Z,94.51
2019-03-30T03:45:47.835Z,93.57
2019-03-30T03:48:17.618Z,93.42
2019-03-30T03:50:49.506Z,93.37
2019-03-30T03:53:19.461Z,93.25
2019-03-30T03:55:49.261Z,92.83
2019-03-30T03:58:20.666Z,91.57
2019-03-30T04:00:53.486Z,92.03
2019-03-30T04:03:23.690Z,91.80
2019-03-30T04:05:56.278Z,92.88
2019-03-30T04:08:29.181Z,92.77
2019-03-30T04:10:59.744Z,92.12
2019-03-30T04:13:30.652Z,91.40
2019-03-30T04:16:00.319Z,91.92
2019-03-30T04:18:30.048Z,92.51
2019-03-30T04:20:59.712Z,93.38
2019-03-30T04:23:29.650Z,93.34
2019-03-30T04:25:59.625Z,93.58
2019-03-30T04:28:29.363Z,93.77
2019-03-30T04:30:59.208Z,92.69
2019-03-30T04:33:28.905Z,93.12
2019-03-30T04:35:58.558Z,93.60
2019-03-30T04:38:28.334Z,93.74
2019-03-30T04:40:58.045Z,94.02
2019-03-30T04:43:27.728Z,95.09
2019-03-30T04:45:57.676Z,94.44
2019-03-30T04:48:29.494Z,93.98
2019-03-30T04:50:59.029Z,92.88
2019-03-30T04:53:28.705Z,92.82
2019-03-30T04:55:58.443Z,93.50
2019-03-30T04:58:28.141Z,92.60
2019-03-30T05:00:57.821Z,92.85
2019-03-30T05:03:27.747Z,93.69
2019-03-30T05:05:57.444Z,93.36
2019-03-30T05:08:27.148Z,93.44
2019-03-30T05:10:56.830Z,93.08
2019-03-30T05:13:26.519Z,93.32
2019-03-30T05:15:56.419Z,93.41
2019-03-30T05:18:26.108Z,93.60
2019-03-30T05:20:56.082Z,93.84
2019-03-30T05:23:26.010Z,94.08
2019-03-30T05:25:55.698Z,94.10
2019-03-30T05:28:25.534Z,93.21
2019-03-30T05:30:55.213Z,93.17
2019-03-30T05:33:24.916Z,92.97
2019-03-30T05:35:54.574Z,93.23
2019-03-30T05:38:24.327Z,94.06
2019-03-30T05:40:54.037Z,93.84
2019-03-30T05:43:23.693Z,93.01
2019-03-30T05:45:53.455Z,92.00
2019-03-30T05:48:23.284Z,91.72
2019-03-30T05:50:52.986Z,92.10
2019-03-30T05:53:22.869Z,92.25
2019-03-30T05:55:52.711Z,92.08
2019-03-30T05:58:22.477Z,91.49
2019-03-30T06:00:52.153Z,89.82
2019-03-30T06:03:22.140Z,89.81
2019-03-30T06:05:51.853Z,90.99
2019-03-30T06:08:21.772Z,91.07
2019-03-30T06:10:51.468Z,91.66
2019-03-30T06:13:21.152Z,91.79
2019-03-30T06:15:53.875Z,91.56
2019-03-30T06:18:23.649Z,91.63
2019-03-30T06:20:53.446Z,90.35
2019-03-30T06:23:23.242Z,90.30
2019-03-30T06:25:53.025Z,90.40
2019-03-30T06:28:22.853Z,90.15
2019-03-30T06:30:52.509Z,89.63
2019-03-30T06:33:22.527Z,88.87
2019-03-30T06:35:52.261Z,87.46
2019-03-30T06:38:22.005Z,86.93
2019-03-30T06:40:51.692Z,86.45
2019-03-30T06:43:21.402Z,85.78
2019-03-30T06:45:51.360Z,84.97
2019-03-30T06:48:21.412Z,83.83
2019-03-30T06:50:51.133Z,83.68
2019-03-30T06:53:20.840Z,82.76
2019-03-30T06:55:50.591Z,82.52
2019-03-30T06:58:20.360Z,81.84
2019-03-30T07:00:51.439Z,81.77
2019-03-30T07:03:21.727Z,81.14
2019-03-30T07:05:52.602Z,79.79
2019-03-30T07:08:22.447Z,79.12
2019-03-30T07:10:52.135Z,77.41
2019-03-30T07:13:22.333Z,76.52
2019-03-30T07:15:52.190Z,75.65
2019-03-30T07:18:21.912Z,73.72
2019-03-30T07:20:52.261Z,73.42
2019-03-30T07:23:22.154Z,73.03
2019-03-30T07:25:51.849Z,72.54
2019-03-30T07:28:21.574Z,72.35
2019-03-30T07:30:51.291Z,70.49
2019-03-30T07:33:20.993Z,70.06
2019-03-30T07:35:50.784Z,68.43
2019-03-30T07:38:20.538Z,67.54
2019-03-30T07:40:50.330Z,67.78
2019-03-30T07:43:20.148Z,66.39
2019-03-30T07:45:49.886Z,65.58
2019-03-30T07:48:19.802Z,63.97
2019-03-30T07:50:49.589Z,62.57
2019-03-30T07:53:26.271Z,61.54
2019-03-30T07:55:50.742Z,61.97
2019-03-30T07:58:20.521Z,62.00
2019-03-30T08:00:50.246Z,61.56
2019-03-30T08:03:19.976Z,60.61
2019-03-30T08:05:49.729Z,59.98
2019-03-30T08:08:19.545Z,58.44
2019-03-30T08:10:49.434Z,58.34
2019-03-30T08:13:19.148Z,57.29
2019-03-30T08:15:49.049Z,56.87
2019-03-30T08:18:18.725Z,56.34
2019-03-30T08:20:48.732Z,56.72
2019-03-30T08:23:18.471Z,55.34
2019-03-30T08:25:48.170Z,53.20
2019-03-30T08:28:18.260Z,51.97
2019-03-30T08:30:48.022Z,50.44
2019-03-30T08:33:17.794Z,49.98
2019-03-30T08:35:47.515Z,50.15
2019-03-30T08:38:17.337Z,49.61
2019-03-30T08:40:47.082Z,46.70
2019-03-30T08:43:16.980Z,46.84
2019-03-30T08:45:48.959Z,45.85
2019-03-30T08:48:18.566Z,46.98
2019-03-30T08:50:49.792Z,46.07
2019-03-30T08:53:19.487Z,46.75
2019-03-30T08:55:49.236Z,47.15
2019-03-30T08:58:18.916Z,45.48
2019-03-30T09:00:48.710Z,44.63
2019-03-30T09:03:18.430Z,46.32
2019-03-30T09:05:48.178Z,44.35
2019-03-30T09:08:18.061Z,43.87
2019-03-30T09:10:47.831Z,44.40
2019-03-30T09:13:17.595Z,43.55
2019-03-30T09:15:47.404Z,43.62
2019-03-30T09:18:17.463Z,41.52
2019-03-30T09:20:47.210Z,40.72
2019-03-30T09:23:17.006Z,41.81
2019-03-30T09:25:46.752Z,40.49
2019-03-30T09:28:16.961Z,40.22
2019-03-30T09:30:46.784Z,39.43
2019-03-30T09:33:16.557Z,38.90
2019-03-30T09:35:46.413Z,38.73
2019-03-30T09:38:16.137Z,37.61
2019-03-30T09:40:45.862Z,37.64
2019-03-30T09:43:16.021Z,37.18
2019-03-30T09:45:45.713Z,37.94
2019-03-30T09:48:15.445Z,38.89
2019-03-30T09:50:45.631Z,37.43
2019-03-30T09:53:15.406Z,38.46
2019-03-30T09:55:45.138Z,37.03
2019-03-30T09:58:14.994Z,36.11
2019-03-30T10:00:44.994Z,34.65
2019-03-30T10:03:14.841Z,36.42
2019-03-30T10:05:44.856Z,36.52
2019-03-30T10:08:14.592Z,36.21
2019-03-30T10:10:44.341Z,36.14
2019-03-30T10:13:14.220Z,38.50
2019-03-30T10:15:43.940Z,36.84
2019-03-30T10:18:13.768Z,37.00
2019-03-30T10:20:43.456Z,38.63
2019-03-30T10:23:13.211Z,36.00
2019-03-30T10:25:42.981Z,36.65
2019-03-30T10:28:12.746Z,36.26
2019-03-30T10:30:42.503Z,36.07
2019-03-30T10:33:12.269Z,36.08
2019-03-30T10:35:42.081Z,39.32
2019-03-30T10:38:11.900Z,37.78
2019-03-30T10:40:42.213Z,35.28
2019-03-30T10:43:12.247Z,34.81
2019-03-30T10:45:42.011Z,34.27
2019-03-30T10:48:11.879Z,34.21
2019-03-30T10:50:41.605Z,33.57
2019-03-30T10:53:11.712Z,33.70
2019-03-30T10:55:41.445Z,33.91
2019-03-30T10:58:11.154Z,33.72
2019-03-30T11:00:41.814Z,32.76
2019-03-30T11:03:11.819Z,32.13
2019-03-30T11:05:41.738Z,32.24
2019-03-30T11:08:11.504Z,31.83
2019-03-30T11:10:41.359Z,31.74
2019-03-30T11:13:11.273Z,31.38
2019-03-30T11:15:41.062Z,31.35
2019-03-30T11:18:10.794Z,30.63
2019-03-30T11:20:41.321Z,30.78
2019-03-30T11:23:11.022Z,30.40
2019-03-30T11:25:40.755Z,30.54
2019-03-30T11:28:10.446Z,29.67
2019-03-30T11:30:40.335Z,29.09
2019-03-30T11:33:10.111Z,29.36
2019-03-30T11:35:40.014Z,30.10
2019-03-30T11:38:09.727Z,31.23
2019-03-30T11:40:39.437Z,32.65
2019-03-30T11:43:09.187Z,31.77
2019-03-30T11:45:38.985Z,32.64
2019-03-30T11:48:08.728Z,32.98
2019-03-30T11:50:38.451Z,30.91
2019-03-30T11:53:08.141Z,30.10
2019-03-30T11:55:37.867Z,30.42
2019-03-30T11:58:07.907Z,31.21
2019-03-30T12:00:37.652Z,30.12
2019-03-30T12:03:07.482Z,29.96
2019-03-30T12:05:37.518Z,29.66
2019-03-30T12:08:07.221Z,30.01
2019-03-30T12:10:37.233Z,31.00
2019-03-30T12:13:07.047Z,29.37
2019-03-30T12:15:36.756Z,29.68
2019-03-30T12:18:06.580Z,28.71
2019-03-30T12:20:36.305Z,28.14
2019-03-30T12:23:06.011Z,29.13
2019-03-30T12:25:36.337Z,29.71
2019-03-30T12:28:06.100Z,30.05
2019-03-30T12:30:35.874Z,30.26
2019-03-30T12:33:06.688Z,28.57
2019-03-30T12:35:37.765Z,27.50
2019-03-30T12:38:07.486Z,26.38
2019-03-30T12:40:37.170Z,24.79
2019-03-30T12:43:06.856Z,24.44
2019-03-30T12:45:36.696Z,25.03
2019-03-30T12:48:06.418Z,24.60
2019-03-30T12:50:36.191Z,24.56
2019-03-30T12:53:06.143Z,25.15
2019-03-30T12:55:48.561Z,24.84
2019-03-30T12:58:07.492Z,25.16
2019-03-30T13:00:37.321Z,24.37
2019-03-30T13:03:07.106Z,24.06
2019-03-30T13:05:36.895Z,23.88
2019-03-30T13:08:06.888Z,24.40
2019-03-30T13:10:36.600Z,24.48
2019-03-30T13:13:06.461Z,25.98
2019-03-30T13:15:36.163Z,25.85
2019-03-30T13:18:05.972Z,25.84
2019-03-30T13:20:35.807Z,25.45
2019-03-30T13:23:05.549Z,24.65
2019-03-30T13:25:35.329Z,23.34
2019-03-30T13:28:05.145Z,23.20
2019-03-30T13:30:34.853Z,22.83
2019-03-30T13:33:04.698Z,22.29
2019-03-30T13:35:34.845Z,22.19
2019-03-30T13:38:04.703Z,22.94
2019-03-30T13:40:34.411Z,23.07
2019-03-30T13:43:04.145Z,22.89
2019-03-30T13:45:33.909Z,21.35
2019-03-30T13:48:03.601Z,21.44
2019-03-30T13:50:33.331Z,21.08
2019-03-30T13:53:03.050Z,21.48
2019-03-30T13:55:32.876Z,21.59
2019-03-30T13:58:02.592Z,22.45
2019-03-30T14:00:32.253Z,23.28
2019-03-30T14:03:01.976Z,23.44
2019-03-30T14:05:31.702Z,22.54
2019-03-30T14:08:01.436Z,23.39
2019-03-30T14:10:31.192Z,22.69
2019-03-30T14:13:00.900Z,22.33
2019-03-30T14:15:30.763Z,21.51
2019-03-30T14:18:00.537Z,21.69
2019-03-30T14:20:30.533Z,23.55
2019-03-30T14:23:00.230Z,23.70
2019-03-30T14:25:29.937Z,23.38
2019-03-30T14:27:59.664Z,22.30
2019-03-30T14:30:29.420Z,22.92
2019-03-30T14:32:59.144Z,23.42
2019-03-30T14:35:29.002Z,24.38
2019-03-30T14:38:00.531Z,23.43
2019-03-30T14:40:30.297Z,23.11
2019-03-30T14:43:00.132Z,22.92
2019-03-30T14:45:29.873Z,22.91
2019-03-30T14:47:59.649Z,22.81
2019-03-30T14:50:29.545Z,23.10
2019-03-30T14:52:59.359Z,23.92
2019-03-30T14:55:29.073Z,24.04
2019-03-30T14:57:58.821Z,22.82
2019-03-30T15:00:28.702Z,24.76
2019-03-30T15:02:58.600Z,23.60
2019-03-30T15:05:28.372Z,23.76
2019-03-30T15:07:58.072Z,23.72
2019-03-30T15:10:27.772Z,24.65
2019-03-30T15:12:57.580Z,25.65
2019-03-30T15:15:27.406Z,25.35
2019-03-30T15:17:57.160Z,25.55
2019-03-30T15:20:26.872Z,24.74
2019-03-30T15:22:56.612Z,24.54
2019-03-30T15:25:26.330Z,24.17
2019-03-30T15:27:56.042Z,24.01
2019-03-30T15:30:25.759Z,25.14
2019-03-30T15:32:55.844Z,25.02
2019-03-30T15:35:26.091Z,24.05
2019-03-30T15:37:55.991Z,23.90
2019-03-30T15:40:25.686Z,25.32
2019-03-30T15:42:56.093Z,24.96
2019-03-30T15:45:25.965Z,24.86
2019-03-30T15:47:55.728Z,24.59
2019-03-30T15:50:25.436Z,24.71
2019-03-30T15:52:55.757Z,24.21
2019-03-30T15:55:25.771Z,24.25
2019-03-30T15:57:55.489Z,24.10
2019-03-30T16:00:25.265Z,24.12
2019-03-30T16:02:54.989Z,24.45
2019-03-30T16:05:24.735Z,24.63
2019-03-30T16:07:54.505Z,24.47
2019-03-30T16:10:24.342Z,24.72
2019-03-30T16:12:54.069Z,24.90
2019-03-30T16:15:24.046Z,24.78
2019-03-30T16:17:53.737Z,25.01
2019-03-30T16:20:23.503Z,25.61
2019-03-30T16:22:53.248Z,25.27
2019-03-30T16:25:23.231Z,24.60
2019-03-30T16:27:53.102Z,26.80
2019-03-30T16:30:22.975Z,26.74
2019-03-30T16:32:52.828Z,26.35
2019-03-30T16:35:22.588Z,27.23
2019-03-30T16:37:52.531Z,27.19
2019-03-30T16:40:22.293Z,26.76
2019-03-30T16:42:51.973Z,26.56
2019-03-30T16:45:21.903Z,26.62
2019-03-30T16:47:51.719Z,27.04
2019-03-30T16:50:21.815Z,26.95
2019-03-30T16:52:51.534Z,26.88
2019-03-30T16:55:21.215Z,27.20
2019-03-30T16:57:50.966Z,26.76
2019-03-30T17:00:20.779Z,26.76
2019-03-30T17:02:50.505Z,27.01
2019-03-30T17:05:20.420Z,27.47
2019-03-30T17:07:50.155Z,27.55
2019-03-30T17:10:20.036Z,27.16
2019-03-30T17:12:49.817Z,26.90
2019-03-30T17:15:19.552Z,27.16
2019-03-30T17:17:49.264Z,27.30
2019-03-30T17:20:19.076Z,27.14
2019-03-30T17:22:48.768Z,27.75
2019-03-30T17:25:18.719Z,28.15
2019-03-30T17:27:58.001Z,28.87
2019-03-30T17:30:20.083Z,28.44
2019-03-30T17:32:50.925Z,29.32
2019-03-30T17:35:20.697Z,29.75
2019-03-30T17:37:50.445Z,30.22
2019-03-30T17:40:20.302Z,30.49
2019-03-30T17:42:50.143Z,32.56
2019-03-30T17:45:20.417Z,32.82
2019-03-30T17:47:50.153Z,34.93
2019-03-30T17:50:19.911Z,36.77
2019-03-30T17:52:49.650Z,38.72
2019-03-30T17:55:32.776Z,40.40
2019-03-30T17:57:51.033Z,41.92
2019-03-30T18:00:21.031Z,43.15
2019-03-30T18:02:50.766Z,44.26
2019-03-30T18:05:20.574Z,45.12
2019-03-30T18:07:50.292Z,45.85
2019-03-30T18:10:20.075Z,46.62
2019-03-30T18:12:49.785Z,47.19
2019-03-30T18:15:19.551Z,48.14
2019-03-30T18:17:49.405Z,48.29
2019-03-30T18:20:19.091Z,48.46
2019-03-30T18:22:48.992Z,49.21
2019-03-30T18:25:18.921Z,49.56
2019-03-30T18:27:48.903Z,50.08
2019-03-30T18:30:25.287Z,50.15
2019-03-30T18:32:55.092Z,50.41
2019-03-30T18:35:24.945Z,50.93
2019-03-30T18:37:55.653Z,51.60
2019-03-30T18:40:29.358Z,51.97
2019-03-30T18:42:59.738Z,52.33
2019-03-30T18:45:30.082Z,53.14
2019-03-30T18:48:11.747Z,53.47
2019-03-30T18:50:41.868Z,53.81
2019-03-30T18:53:11.850Z,53.93
2019-03-30T18:55:41.948Z,54.01
2019-03-30T18:58:11.849Z,54.66
2019-03-30T19:00:41.602Z,55.00
2019-03-30T19:03:11.473Z,55.07
2019-03-30T19:05:41.510Z,55.60
2019-03-30T19:08:11.176Z,56.20
2019-03-30T19:10:40.965Z,56.33
2019-03-30T19:13:11.570Z,56.55
2019-03-30T19:15:41.324Z,57.10
2019-03-30T19:18:11.329Z,57.30
2019-03-30T19:20:41.205Z,57.76
2019-03-30T19:23:11.107Z,58.15
2019-03-30T19:25:40.887Z,58.37
2019-03-30T19:28:10.646Z,58.70
2019-03-30T19:30:42.236Z,58.30
2019-03-30T19:33:11.903Z,58.95
2019-03-30T19:35:41.687Z,58.99
2019-03-30T19:38:11.596Z,58.61
2019-03-30T19:40:41.421Z,59.12
2019-03-30T19:43:11.221Z,59.48
2019-03-30T19:45:40.994Z,60.13
2019-03-30T19:48:10.848Z,60.55
2019-03-30T19:50:40.633Z,60.07
2019-03-30T19:53:10.534Z,60.62
2019-03-30T19:55:40.765Z,61.00
2019-03-30T19:58:10.665Z,61.56
2019-03-30T20:00:40.489Z,62.27
2019-03-30T20:03:10.253Z,62.16
2019-03-30T20:05:40.190Z,62.07
2019-03-30T20:08:12.300Z,62.24
2019-03-30T20:10:41.596Z,62.62
2019-03-30T20:13:11.607Z,63.41
2019-03-30T20:15:41.346Z,63.64
2019-03-30T20:18:11.233Z,63.95
2019-03-30T20:20:40.984Z,63.67
2019-03-30T20:23:10.892Z,64.18
2019-03-30T20:25:40.604Z,63.59
2019-03-30T20:28:10.401Z,62.96
2019-03-30T20:30:40.249Z,62.99
2019-03-30T20:33:10.040Z,63.52
2019-03-30T20:35:39.779Z,64.23
2019-03-30T20:38:09.754Z,64.56
2019-03-30T20:40:39.485Z,64.10
2019-03-30T20:43:09.249Z,64.42
2019-03-30T20:45:41.261Z,65.02
2019-03-30T20:48:11.269Z,65.39
2019-03-30T20:50:40.998Z,65.81
2019-03-30T20:53:10.904Z,66.40
2019-03-30T20:55:40.699Z,66.44
2019-03-30T20:58:10.507Z,66.54
2019-03-30T21:00:40.463Z,66.37
2019-03-30T21:03:10.237Z,66.03
2019-03-30T21:05:40.030Z,66.28
2019-03-30T21:08:09.753Z,66.18
2019-03-30T21:10:39.616Z,66.30
2019-03-30T21:13:09.319Z,66.33
2019-03-30T21:15:39.145Z,67.04
2019-03-30T21:18:08.836Z,67.15
2019-03-30T21:20:38.576Z,67.93
2019-03-30T21:23:08.372Z,67.20
2019-03-30T21:25:39.188Z,67.17
2019-03-30T21:28:08.995Z,66.78
2019-03-30T21:30:38.817Z,67.12
2019-03-30T21:33:08.510Z,67.54
2019-03-30T21:35:41.131Z,68.41
2019-03-30T21:38:10.814Z,68.14
2019-03-30T21:40:40.533Z,68.03
2019-03-30T21:43:10.315Z,68.35
2019-03-30T21:45:41.509Z,69.08
2019-03-30T21:48:11.267Z,69.57
2019-03-30T21:50:40.987Z,69.25
2019-03-30T21:53:10.756Z,69.41
2019-03-30T21:55:40.500Z,69.23
2019-03-30T21:58:10.679Z,69.17
2019-03-30T22:00:41.016Z,69.86
2019-03-30T22:03:10.658Z,70.50
2019-03-30T22:05:40.496Z,70.79
2019-03-30T22:08:10.303Z,71.55
2019-03-30T22:10:40.918Z,71.91
2019-03-30T22:13:10.664Z,72.68
2019-03-30T22:15:40.411Z,72.14
2019-03-30T22:18:10.130Z,71.75
2019-03-30T22:20:40.019Z,72.00
2019-03-30T22:23:09.742Z,72.57
2019-03-30T22:25:39.518Z,72.66
2019-03-30T22:28:09.234Z,72.29
2019-03-30T22:30:38.959Z,72.54
2019-03-30T22:33:08.734Z,72.70
2019-03-30T22:35:38.528Z,72.99
2019-03-30T22:38:08.366Z,73.87
2019-03-30T22:40:41.296Z,74.84
2019-03-30T22:43:09.515Z,74.30
2019-03-30T22:45:39.201Z,74.52
2019-03-30T22:48:08.944Z,75.43
2019-03-30T22:50:38.716Z,75.57
2019-03-30T22:53:08.427Z,75.58
2019-03-30T22:55:40.599Z,75.84
2019-03-30T22:58:10.353Z,76.60
2019-03-30T23:00:57.543Z,76.69
2019-03-30T23:03:27.245Z,76.95
2019-03-30T23:05:57.005Z,76.28
2019-03-30T23:08:26.804Z,75.90
2019-03-30T23:10:56.500Z,75.88
2019-03-30T23:13:26.359Z,76.00
2019-03-30T23:15:56.225Z,76.97
2019-03-30T23:18:26.115Z,77.21
2019-03-30T23:20:55.832Z,77.18
2019-03-30T23:23:25.642Z,76.60
2019-03-30T23:25:55.396Z,76.22
2019-03-30T23:28:25.109Z,76.09
2019-03-30T23:30:54.986Z,76.71
2019-03-30T23:33:24.702Z,77.31
2019-03-30T23:35:54.397Z,77.86
2019-03-30T23:38:24.091Z,77.79
2019-03-30T23:40:53.803Z,78.22
2019-03-30T23:43:23.541Z,78.29
2019-03-30T23:45:53.351Z,77.81
2019-03-30T23:48:23.047Z,77.16
2019-03-30T23:50:52.783Z,77.34
2019-03-30T23:53:22.575Z,78.15
2019-03-30T23:55:52.596Z,78.80
2019-03-30T23:58:22.298Z,78.99
